Terminal Aerodrome Forecast
Issued by NWS Wilmington, NC

Home | Current Version | Previous Version | Text Only | Print | Product List | Glossary On
Versions: 1 2 3 4 5 6 7 8 9 10 11 12 13
000
FTUS42 KILM 301400 AAA
TAFFLO
TAF AMD
KFLO 301410Z 3014/3112 03004KT P6SM SCT010
     FM301700 15008KT P6SM SCT040
     FM310600 VRB03KT 3SM BR SCT050
     FM310900 VRB03KT 1SM BR SCT003 OVC008=

USA.gov is the U.S. government's official web portal to all federal, state and local government web resources and services.